Time;durP1;ratioP1;P1;durP2;ratioP2;P2;SDS_P1;SDS_P2;PMS_P1;PMS_P2;Temp;Humidity;BMP_temperature;BMP_pressure;BME280_temperature;BME280_humidity;BME280_pressure;Samples;Min_cycle;Max_cycle;Signal;HPM_P1;HPM_P2
2022/01/12 00:01:15;;;;;;;42.10;18.80;;;3.80;99.90;;;;;;5094345;28;20043;-67
2022/01/12 00:03:43;;;;;;;40.78;19.90;;;3.90;99.90;;;;;;5093777;28;20242;-67
2022/01/12 00:06:08;;;;;;;40.60;20.27;;;3.90;99.90;;;;;;5111728;28;20416;-67
2022/01/12 00:08:34;;;;;;;45.08;19.73;;;3.90;99.90;;;;;;5093477;28;20046;-67
2022/01/12 00:11:02;;;;;;;46.65;21.65;;;4.00;99.90;;;;;;5093477;28;20100;-67
2022/01/12 00:13:27;;;;;;;37.08;19.35;;;3.90;99.90;;;;;;5092226;28;20051;-68
2022/01/12 00:15:53;;;;;;;45.47;21.02;;;3.90;99.90;;;;;;5093245;28;20052;-68
2022/01/12 00:18:19;;;;;;;40.30;20.20;;;3.90;99.90;;;;;;5093139;28;20059;-68
2022/01/12 00:20:44;;;;;;;41.58;20.77;;;3.90;99.90;;;;;;5093190;28;20036;-68
2022/01/12 00:23:10;;;;;;;42.80;20.55;;;3.90;99.90;;;;;;5092717;28;20555;-67
2022/01/12 00:33:52;;;;;;;45.47;20.63;;;4.00;99.90;;;;;;5061584;28;20052;-68
2022/01/12 00:36:18;;;;;;;40.40;18.95;;;3.90;99.90;;;;;;5092887;28;20047;-68
2022/01/12 00:38:44;;;;;;;44.65;20.45;;;3.90;99.90;;;;;;5092831;28;20040;-68
2022/01/12 00:41:10;;;;;;;44.33;20.10;;;3.90;99.90;;;;;;5093046;28;20044;-67
2022/01/12 00:43:39;;;;;;;41.83;20.80;;;3.90;99.90;;;;;;5092488;28;20040;-67
2022/01/12 00:46:05;;;;;;;46.03;21.05;;;3.90;99.90;;;;;;5092952;28;20035;-67
2022/01/12 00:48:30;;;;;;;45.70;21.42;;;3.90;99.90;;;;;;5093027;28;20104;-67
2022/01/12 00:50:58;;;;;;;41.15;19.67;;;3.90;99.90;;;;;;5092903;28;20054;-67
2022/01/12 00:53:24;;;;;;;42.30;19.83;;;3.90;99.90;;;;;;5092438;28;20048;-67
2022/01/12 00:55:50;;;;;;;43.28;19.10;;;3.90;99.90;;;;;;5093077;28;20039;-67
2022/01/12 00:58:15;;;;;;;40.58;19.23;;;3.90;99.90;;;;;;5092946;28;20050;-67
2022/01/12 01:00:41;;;;;;;40.13;19.65;;;3.90;99.90;;;;;;5092876;28;20051;-67
2022/01/12 01:03:09;;;;;;;42.03;20.58;;;3.90;99.90;;;;;;5092515;28;20047;-68
2022/01/12 01:05:34;;;;;;;42.38;19.38;;;3.90;99.90;;;;;;5092710;28;20047;-68
2022/01/12 01:08:01;;;;;;;36.63;18.73;;;3.90;99.90;;;;;;5092678;28;20043;-67
2022/01/12 01:10:45;;;;;;;37.83;19.52;;;3.90;99.90;;;;;;5111439;28;20153;-68
2022/01/12 01:13:15;;;;;;;37.05;19.98;;;4.00;99.90;;;;;;5096548;28;20068;-68
2022/01/12 01:26:25;;;;;;;38.45;18.50;;;4.00;99.90;;;;;;5096269;28;20047;-67
2022/01/12 01:28:50;;;;;;;40.47;19.63;;;4.00;99.90;;;;;;5095941;28;20492;-68
2022/01/12 01:31:16;;;;;;;39.17;20.38;;;3.90;99.90;;;;;;5096550;28;20055;-68
2022/01/12 01:33:41;;;;;;;48.80;21.95;;;3.90;99.90;;;;;;5095911;28;20047;-68
2022/01/12 01:36:07;;;;;;;39.75;20.15;;;4.00;99.90;;;;;;5096140;28;20090;-68
2022/01/12 01:38:33;;;;;;;39.95;19.23;;;3.90;99.90;;;;;;5096103;28;20515;-68
2022/01/12 01:40:59;;;;;;;38.42;20.67;;;3.90;99.90;;;;;;5096484;28;20043;-68
2022/01/12 01:43:57;;;;;;;38.35;18.73;;;3.90;99.90;;;;;;5095762;28;20039;-68
2022/01/12 01:54:35;;;;;;;41.95;19.90;;;4.10;99.90;;;;;;5096087;28;20047;-67
2022/01/12 01:57:01;;;;;;;43.55;21.10;;;4.00;99.90;;;;;;5095804;28;20035;-67
2022/01/12 01:59:27;;;;;;;40.00;21.50;;;4.00;99.90;;;;;;5095606;28;20385;-68
2022/01/12 02:01:52;;;;;;;40.80;21.25;;;4.00;99.90;;;;;;5113672;28;20050;-67
2022/01/12 02:04:18;;;;;;;42.10;21.27;;;4.00;99.90;;;;;;5113928;28;20062;-68
2022/01/12 02:06:43;;;;;;;41.92;21.13;;;4.10;99.90;;;;;;5095655;28;20440;-68
2022/01/12 02:09:09;;;;;;;38.33;20.48;;;4.10;99.90;;;;;;5095534;28;20481;-68
2022/01/12 02:11:34;;;;;;;50.90;20.85;;;4.10;99.90;;;;;;5095644;28;20051;-68
2022/01/12 02:14:00;;;;;;;41.03;19.83;;;4.10;99.90;;;;;;5095527;28;20046;-68
2022/01/12 02:16:34;;;;;;;43.20;20.67;;;4.10;99.90;;;;;;5095370;28;20039;-68
2022/01/12 02:19:15;;;;;;;46.63;21.83;;;4.10;99.90;;;;;;5095400;28;20535;-68
2022/01/12 02:35:46;;;;;;;41.95;21.23;;;4.10;99.90;;;;;;5113608;28;20423;-67
2022/01/12 02:40:53;;;;;;;47.70;21.80;;;4.20;99.90;;;;;;5095067;28;20552;-68
2022/01/12 02:43:43;;;;;;;48.20;21.30;;;4.20;99.90;;;;;;5094546;28;20048;-68
2022/01/12 02:54:21;;;;;;;54.00;23.75;;;4.30;99.90;;;;;;5094694;28;20051;-68
2022/01/12 02:56:46;;;;;;;49.60;22.30;;;4.20;99.90;;;;;;5094701;28;20043;-68
2022/01/12 02:59:13;;;;;;;48.78;23.23;;;4.30;99.90;;;;;;5094368;28;20043;-68
2022/01/12 03:04:16;;;;;;;50.20;23.33;;;4.20;99.90;;;;;;5094463;28;20039;-68
2022/01/12 03:06:43;;;;;;;52.88;23.58;;;4.20;99.90;;;;;;5094451;28;20499;-68
2022/01/12 03:09:10;;;;;;;56.25;25.15;;;4.20;99.90;;;;;;5112670;28;20051;-67
2022/01/12 03:11:38;;;;;;;52.05;23.15;;;4.20;99.90;;;;;;5112447;28;20035;-68
2022/01/12 03:14:03;;;;;;;62.50;24.33;;;4.30;99.90;;;;;;5112384;28;20050;-68
2022/01/12 03:16:29;;;;;;;62.63;24.95;;;4.20;99.90;;;;;;5112612;28;20035;-68
2022/01/12 03:18:57;;;;;;;56.90;24.33;;;4.30;99.90;;;;;;5093987;28;20040;-68
2022/01/12 03:21:32;;;;;;;62.63;25.13;;;4.20;99.90;;;;;;5094170;28;20040;-68
2022/01/12 03:23:59;;;;;;;68.45;25.85;;;4.20;99.90;;;;;;5093638;28;20488;-68
2022/01/12 03:26:28;;;;;;;63.25;26.05;;;4.20;99.90;;;;;;5094155;28;20043;-68
2022/01/12 03:28:55;;;;;;;65.97;26.58;;;4.30;99.90;;;;;;5093895;28;20609;-68
2022/01/12 03:31:24;;;;;;;59.58;26.48;;;4.30;99.90;;;;;;5093802;28;20051;-68
2022/01/12 03:34:05;;;;;;;61.53;24.80;;;4.30;99.90;;;;;;5092844;28;20048;-68
2022/01/12 03:39:11;;;;;;;63.83;24.80;;;4.30;99.90;;;;;;5093683;28;20050;-69
2022/01/12 03:41:41;;;;;;;67.18;25.90;;;4.30;99.90;;;;;;5093610;28;20046;-68
2022/01/12 03:44:09;;;;;;;61.13;24.58;;;4.30;99.90;;;;;;5093655;28;20124;-68
2022/01/12 03:46:48;;;;;;;71.47;27.58;;;4.30;99.90;;;;;;5093519;28;20035;-68
2022/01/12 03:49:15;;;;;;;62.50;26.42;;;4.30;99.90;;;;;;5093600;28;20047;-68
2022/01/12 03:51:41;;;;;;;68.78;27.40;;;4.40;99.90;;;;;;5094121;28;20043;-68
2022/01/12 03:54:07;;;;;;;63.92;24.95;;;4.30;99.90;;;;;;5094571;28;20036;-68
2022/01/12 03:56:33;;;;;;;65.35;27.10;;;4.20;99.90;;;;;;5094432;28;20108;-68
2022/01/12 03:58:59;;;;;;;73.63;27.67;;;4.30;99.90;;;;;;5094168;28;20078;-68
2022/01/12 04:01:24;;;;;;;71.75;26.55;;;4.30;99.90;;;;;;5112563;28;20058;-68
2022/01/12 04:04:00;;;;;;;62.83;25.75;;;4.40;99.90;;;;;;5094097;28;20050;-68
2022/01/12 04:09:11;;;;;;;72.28;27.30;;;4.40;99.90;;;;;;5112882;28;20483;-68
2022/01/12 04:11:37;;;;;;;68.88;27.75;;;4.40;99.90;;;;;;5112594;28;20083;-68
2022/01/12 04:14:04;;;;;;;68.00;26.70;;;4.40;99.90;;;;;;5092914;28;20078;-68
2022/01/12 04:16:30;;;;;;;72.75;26.88;;;4.40;99.90;;;;;;5111665;28;20054;-68
2022/01/12 04:18:55;;;;;;;74.53;26.88;;;4.40;99.90;;;;;;5111372;28;20118;-68
2022/01/12 04:21:27;;;;;;;68.95;26.75;;;4.40;99.90;;;;;;5093372;28;20043;-68
2022/01/12 04:23:53;;;;;;;76.43;27.70;;;4.40;99.90;;;;;;5092603;28;20050;-68
2022/01/12 04:26:19;;;;;;;72.25;27.08;;;4.40;99.90;;;;;;5093519;28;20073;-68
2022/01/12 04:28:45;;;;;;;75.45;28.58;;;4.40;99.90;;;;;;5092990;28;20044;-68
2022/01/12 04:31:11;;;;;;;73.75;26.20;;;4.50;99.90;;;;;;5093492;28;20051;-69
2022/01/12 04:33:38;;;;;;;73.43;28.45;;;4.40;99.90;;;;;;5110760;28;20074;-68
2022/01/12 04:36:06;;;;;;;75.45;27.63;;;4.40;99.90;;;;;;5111192;28;20396;-68
2022/01/12 04:38:36;;;;;;;78.80;28.80;;;4.40;99.90;;;;;;5092802;28;20044;-68
2022/01/12 04:41:04;;;;;;;74.60;27.65;;;4.40;99.90;;;;;;5093044;28;20084;-68
2022/01/12 04:43:30;;;;;;;80.22;28.08;;;4.40;99.90;;;;;;5110840;28;20451;-68
2022/01/12 04:46:09;;;;;;;74.55;28.40;;;4.40;99.90;;;;;;5112551;28;20119;-68
2022/01/12 04:48:50;;;;;;;75.20;27.40;;;4.40;99.90;;;;;;5115436;28;20035;-68
2022/01/12 04:51:16;;;;;;;75.78;28.17;;;4.50;99.90;;;;;;5097101;28;20122;-68
2022/01/12 04:53:42;;;;;;;75.20;26.52;;;4.40;99.90;;;;;;5096581;28;20047;-68
2022/01/12 04:56:07;;;;;;;70.45;27.13;;;4.40;99.90;;;;;;5097218;28;20074;-68
2022/01/12 04:58:33;;;;;;;81.40;29.38;;;4.50;99.90;;;;;;5096826;28;20489;-68
2022/01/12 05:01:07;;;;;;;76.13;28.15;;;4.40;99.90;;;;;;5097010;28;20483;-69
2022/01/12 05:06:37;;;;;;;76.65;29.63;;;4.40;99.90;;;;;;5096690;28;20048;-68
2022/01/12 05:09:12;;;;;;;73.93;27.52;;;4.40;99.90;;;;;;5115114;28;20047;-68
2022/01/12 05:14:24;;;;;;;69.00;26.17;;;4.40;99.90;;;;;;5096660;28;20051;-68
2022/01/12 05:16:50;;;;;;;74.75;27.73;;;4.40;99.90;;;;;;5114905;28;20508;-68
2022/01/12 05:19:16;;;;;;;69.70;26.95;;;4.40;99.90;;;;;;5096365;28;20036;-68
2022/01/12 05:21:41;;;;;;;73.75;28.08;;;4.40;99.90;;;;;;5095854;28;20038;-68
2022/01/12 05:24:07;;;;;;;75.95;27.80;;;4.40;99.90;;;;;;5096084;28;20129;-68
2022/01/12 05:26:37;;;;;;;74.63;28.30;;;4.40;99.90;;;;;;5096375;28;20055;-68
2022/01/12 05:29:03;;;;;;;78.55;29.50;;;4.40;99.90;;;;;;5114624;28;20125;-68
2022/01/12 05:31:29;;;;;;;78.10;29.65;;;4.40;99.90;;;;;;5096175;28;20048;-69
2022/01/12 05:33:58;;;;;;;68.50;26.88;;;4.40;99.90;;;;;;5095799;28;20062;-69
2022/01/12 05:36:24;;;;;;;78.18;30.33;;;4.40;99.90;;;;;;5096325;28;20058;-68
2022/01/12 05:38:50;;;;;;;72.60;26.98;;;4.30;99.90;;;;;;5114369;28;20052;-69
2022/01/12 05:41:16;;;;;;;69.50;26.08;;;4.30;99.90;;;;;;5114226;28;20031;-68
2022/01/12 05:43:44;;;;;;;67.70;26.27;;;4.30;99.90;;;;;;5113888;28;20395;-68
2022/01/12 05:46:12;;;;;;;71.53;27.27;;;4.30;99.90;;;;;;5096043;28;20061;-68
2022/01/12 05:51:40;;;;;;;63.20;24.98;;;4.30;99.90;;;;;;5051198;28;20055;-68
2022/01/12 05:54:06;;;;;;;65.70;25.63;;;4.20;99.90;;;;;;5095662;28;20441;-68
2022/01/12 05:56:32;;;;;;;67.43;26.23;;;4.20;99.90;;;;;;5095185;28;20043;-68
2022/01/12 05:58:57;;;;;;;70.85;25.00;;;4.20;99.90;;;;;;5095640;28;20039;-68
2022/01/12 06:01:23;;;;;;;57.55;23.15;;;4.20;99.90;;;;;;5095926;28;20046;-69
2022/01/12 06:03:48;;;;;;;68.07;27.40;;;4.20;99.90;;;;;;5113598;28;20066;-68
2022/01/12 06:06:14;;;;;;;69.43;25.65;;;4.20;99.90;;;;;;5096018;28;20381;-69
2022/01/12 06:08:40;;;;;;;65.03;25.60;;;4.30;99.90;;;;;;5113867;28;20054;-68
2022/01/12 06:11:07;;;;;;;63.65;24.83;;;4.20;99.90;;;;;;5095672;28;20047;-68
2022/01/12 06:13:32;;;;;;;64.63;24.80;;;4.20;99.90;;;;;;5095219;28;20050;-69
2022/01/12 06:15:58;;;;;;;66.53;24.48;;;4.20;99.90;;;;;;5095481;28;20040;-68
2022/01/12 06:18:23;;;;;;;64.97;26.00;;;4.30;99.90;;;;;;5095470;28;20043;-69
2022/01/12 06:20:49;;;;;;;65.15;25.95;;;4.30;99.90;;;;;;5095333;28;20399;-68
2022/01/12 06:23:15;;;;;;;67.13;24.55;;;4.30;99.90;;;;;;5094595;28;20047;-68
2022/01/12 06:25:40;;;;;;;68.03;25.17;;;4.30;99.90;;;;;;5095160;28;20039;-68
2022/01/12 06:29:03;;;;;;;64.40;25.30;;;4.30;99.90;;;;;;5095281;28;20563;-69
2022/01/12 06:33:46;;;;;;;63.17;25.52;;;4.30;99.90;;;;;;5114496;28;20105;-69
2022/01/12 06:36:17;;;;;;;58.50;24.23;;;4.30;99.90;;;;;;5096007;28;20067;-68
2022/01/12 06:38:44;;;;;;;61.28;23.67;;;4.40;99.90;;;;;;5079325;28;20417;-69
2022/01/12 06:41:11;;;;;;;81.13;31.30;;;4.30;99.90;;;;;;5095938;28;20036;-68
2022/01/12 06:43:37;;;;;;;79.90;34.83;;;4.40;99.90;;;;;;5095589;28;20047;-68
2022/01/12 06:46:06;;;;;;;63.65;25.33;;;4.40;99.90;;;;;;5095979;28;20513;-69
2022/01/12 06:48:32;;;;;;;62.53;24.73;;;4.40;99.90;;;;;;5095691;28;20538;-68
2022/01/12 06:50:58;;;;;;;60.88;25.48;;;4.40;99.90;;;;;;5095713;28;20138;-69
2022/01/12 06:53:23;;;;;;;62.10;24.27;;;4.40;99.90;;;;;;5113792;28;20115;-69
2022/01/12 06:55:49;;;;;;;63.90;25.02;;;4.40;99.90;;;;;;5094691;28;20040;-69
2022/01/12 06:58:15;;;;;;;59.45;24.00;;;4.40;99.90;;;;;;5094469;28;20480;-68
2022/01/12 07:00:41;;;;;;;61.42;23.90;;;4.40;99.90;;;;;;5094499;28;20584;-68
2022/01/12 07:03:06;;;;;;;59.30;23.65;;;4.40;99.90;;;;;;5094060;28;20544;-68
2022/01/12 07:05:33;;;;;;;51.95;22.58;;;4.40;99.90;;;;;;5094440;28;20039;-68
2022/01/12 07:07:58;;;;;;;61.45;24.15;;;4.50;99.90;;;;;;5093899;28;20044;-68
2022/01/12 07:10:24;;;;;;;60.42;23.88;;;4.60;99.90;;;;;;5112375;28;20085;-68
2022/01/12 07:12:50;;;;;;;57.13;22.45;;;4.50;99.90;;;;;;5112227;28;20044;-68
2022/01/12 07:15:16;;;;;;;59.30;23.55;;;4.30;99.90;;;;;;5094547;28;20593;-68
2022/01/12 07:17:42;;;;;;;68.53;25.52;;;4.30;99.90;;;;;;5094157;28;20035;-68
2022/01/12 07:20:08;;;;;;;61.15;22.83;;;4.40;99.90;;;;;;5094393;28;20070;-68
2022/01/12 07:22:34;;;;;;;61.60;22.98;;;4.50;99.90;;;;;;5111712;28;20040;-68
2022/01/12 07:25:00;;;;;;;59.33;24.13;;;4.50;99.90;;;;;;5094070;28;20082;-68
2022/01/12 07:27:25;;;;;;;59.55;23.67;;;4.50;99.90;;;;;;5094070;28;20092;-68
2022/01/12 07:29:51;;;;;;;61.47;23.30;;;4.50;99.90;;;;;;5112217;28;20047;-68
2022/01/12 07:32:16;;;;;;;52.80;22.73;;;4.40;99.90;;;;;;5093613;28;20480;-68
2022/01/12 07:34:42;;;;;;;49.28;20.98;;;4.50;99.90;;;;;;5094082;28;20411;-69
2022/01/12 07:37:07;;;;;;;53.28;20.73;;;4.40;99.90;;;;;;5110092;27;20051;-68
2022/01/12 07:39:33;;;;;;;44.88;20.65;;;4.40;99.90;;;;;;5090987;28;20043;-69
2022/01/12 07:41:58;;;;;;;47.35;20.70;;;4.50;99.90;;;;;;5089590;28;20417;-68
2022/01/12 07:44:24;;;;;;;59.08;22.85;;;4.50;99.90;;;;;;5090550;28;20468;-68
2022/01/12 07:46:50;;;;;;;55.40;22.58;;;4.50;99.90;;;;;;5092295;28;20058;-68
2022/01/12 07:49:15;;;;;;;61.38;22.73;;;4.50;99.90;;;;;;5091744;28;21032;-68
2022/01/12 07:51:41;;;;;;;53.75;21.10;;;4.40;99.90;;;;;;5112296;27;20053;-68
2022/01/12 07:54:06;;;;;;;57.53;23.35;;;4.40;99.90;;;;;;5131842;27;20043;-68
2022/01/12 07:56:32;;;;;;;51.28;20.90;;;4.50;99.90;;;;;;5112852;27;20039;-68
2022/01/12 07:58:58;;;;;;;53.47;21.75;;;4.50;99.90;;;;;;5112909;27;20137;-68
2022/01/12 08:01:23;;;;;;;49.60;20.60;;;4.50;99.90;;;;;;5113881;27;20395;-68
2022/01/12 08:03:50;;;;;;;44.35;18.80;;;4.50;99.90;;;;;;5113516;27;20039;-68
2022/01/12 08:06:16;;;;;;;52.40;20.15;;;4.50;99.90;;;;;;5132107;27;20035;-68
2022/01/12 08:08:41;;;;;;;48.28;20.13;;;4.50;99.90;;;;;;5113992;27;20065;-68
2022/01/12 08:11:07;;;;;;;53.50;22.15;;;4.50;99.90;;;;;;5113466;27;20046;-68
2022/01/12 08:13:33;;;;;;;63.38;22.45;;;4.60;99.90;;;;;;5113126;27;20062;-68
2022/01/12 08:15:58;;;;;;;46.92;19.35;;;4.50;99.90;;;;;;5113579;27;20422;-67
2022/01/12 08:18:24;;;;;;;46.17;18.55;;;4.40;99.90;;;;;;5113426;28;20047;-68
2022/01/12 08:20:50;;;;;;;46.88;17.83;;;4.30;99.90;;;;;;5113425;27;20039;-68
2022/01/12 08:23:15;;;;;;;45.25;18.30;;;4.40;99.90;;;;;;5113393;27;20050;-68
2022/01/12 08:25:41;;;;;;;50.05;18.33;;;4.30;99.90;;;;;;5113569;28;20122;-68
2022/01/12 08:28:10;;;;;;;46.28;18.77;;;4.30;99.90;;;;;;5113276;27;20035;-68
2022/01/12 08:30:36;;;;;;;45.33;17.88;;;4.30;99.90;;;;;;5113827;27;20047;-68
2022/01/12 08:33:03;;;;;;;50.92;19.83;;;4.30;99.90;;;;;;5131431;27;20394;-68
2022/01/12 08:35:29;;;;;;;39.05;17.92;;;4.20;99.90;;;;;;5113717;28;20406;-68
2022/01/12 08:37:57;;;;;;;40.38;17.83;;;4.30;99.90;;;;;;5131791;28;20084;-68
2022/01/12 08:40:24;;;;;;;49.45;19.10;;;4.30;99.90;;;;;;5113445;28;20039;-68
2022/01/12 08:42:49;;;;;;;50.67;18.60;;;4.20;99.90;;;;;;5112934;28;20066;-68
2022/01/12 08:45:17;;;;;;;49.15;18.30;;;4.30;99.90;;;;;;5113341;28;20552;-67
2022/01/12 08:47:44;;;;;;;53.55;19.85;;;4.20;99.90;;;;;;5113299;28;20035;-70
2022/01/12 08:50:11;;;;;;;57.92;19.65;;;4.30;99.90;;;;;;5131607;28;20046;-68
2022/01/12 08:52:36;;;;;;;51.17;19.48;;;4.30;99.90;;;;;;5112732;28;20502;-67
2022/01/12 08:55:03;;;;;;;49.65;20.42;;;4.30;99.90;;;;;;5131299;28;20035;-67
2022/01/12 08:57:29;;;;;;;51.13;19.98;;;4.30;99.90;;;;;;5111994;28;20039;-67
2022/01/12 08:59:56;;;;;;;48.13;19.23;;;4.30;99.90;;;;;;5131552;28;20043;-67
2022/01/12 09:02:23;;;;;;;49.58;20.33;;;4.30;99.90;;;;;;5131037;27;20066;-67
2022/01/12 09:04:48;;;;;;;57.80;22.52;;;4.30;99.90;;;;;;5131582;28;20471;-67
2022/01/12 09:07:14;;;;;;;51.88;20.77;;;4.40;99.90;;;;;;5113174;28;20114;-68
2022/01/12 09:09:39;;;;;;;54.13;21.83;;;4.40;99.90;;;;;;5113223;28;20252;-68
2022/01/12 09:12:05;;;;;;;48.13;20.67;;;4.30;99.90;;;;;;5130375;27;20063;-68
2022/01/12 09:14:32;;;;;;;52.42;19.33;;;4.40;99.90;;;;;;5131521;28;20050;-68
2022/01/12 09:16:59;;;;;;;54.97;19.00;;;4.30;99.90;;;;;;5113002;28;20510;-68
2022/01/12 09:19:27;;;;;;;56.72;19.52;;;4.40;99.90;;;;;;5115431;28;20039;-67
2022/01/12 09:21:53;;;;;;;51.30;17.90;;;4.50;99.90;;;;;;5112461;28;20067;-67
2022/01/12 09:24:18;;;;;;;57.22;19.30;;;4.60;99.90;;;;;;5112997;28;20117;-67
2022/01/12 09:26:44;;;;;;;49.47;17.77;;;4.70;99.90;;;;;;5096014;28;20522;-67
2022/01/12 09:29:10;;;;;;;54.70;18.58;;;4.80;99.90;;;;;;5112987;28;20047;-67
2022/01/12 09:31:36;;;;;;;57.13;19.00;;;4.80;99.90;;;;;;5131995;27;20039;-67
2022/01/12 09:34:03;;;;;;;46.50;17.60;;;4.90;99.90;;;;;;5116490;27;20031;-67
2022/01/12 09:36:29;;;;;;;52.60;17.45;;;4.90;99.90;;;;;;5116556;27;20050;-67
2022/01/12 09:38:55;;;;;;;47.95;16.73;;;5.00;99.90;;;;;;5116172;27;20039;-67
2022/01/12 09:41:24;;;;;;;43.70;17.08;;;5.00;99.90;;;;;;5116726;27;20027;-67
2022/01/12 09:43:50;;;;;;;51.05;17.25;;;5.10;99.90;;;;;;5116125;27;20047;-67
2022/01/12 09:46:16;;;;;;;47.60;16.88;;;5.10;99.90;;;;;;5116735;27;20403;-67
2022/01/12 09:48:42;;;;;;;49.67;17.88;;;5.20;99.90;;;;;;5134856;27;20039;-67
2022/01/12 09:51:08;;;;;;;51.63;17.98;;;5.20;99.90;;;;;;5102614;28;20135;-67
2022/01/12 09:53:37;;;;;;;49.92;16.77;;;5.20;99.90;;;;;;5094964;28;20119;-67
2022/01/12 09:56:16;;;;;;;48.53;17.25;;;5.20;99.90;;;;;;5095983;28;20050;-67
2022/01/12 09:58:42;;;;;;;46.05;14.85;;;5.30;99.90;;;;;;5095647;28;20526;-67
2022/01/12 10:01:09;;;;;;;39.65;15.38;;;5.30;99.90;;;;;;5095768;28;20035;-67
2022/01/12 10:03:35;;;;;;;49.65;15.73;;;5.30;99.90;;;;;;5095119;27;20522;-67
2022/01/12 10:06:12;;;;;;;38.20;15.18;;;5.40;99.90;;;;;;5093817;28;20044;-68
2022/01/12 10:08:38;;;;;;;43.13;14.18;;;5.40;99.90;;;;;;5079549;28;20043;-67
2022/01/12 10:11:06;;;;;;;43.28;15.45;;;5.40;99.90;;;;;;5111855;28;20051;-67
2022/01/12 10:13:32;;;;;;;44.50;14.10;;;5.50;99.90;;;;;;5094705;28;20047;-67
2022/01/12 10:16:14;;;;;;;34.13;13.43;;;5.50;99.90;;;;;;5094660;28;20083;-67
2022/01/12 10:18:51;;;;;;;35.05;12.77;;;5.50;99.90;;;;;;5095781;27;20584;-67
2022/01/12 10:21:38;;;;;;;40.05;12.70;;;5.60;99.90;;;;;;5133631;27;20436;-67
2022/01/12 10:24:12;;;;;;;42.55;11.85;;;5.60;99.90;;;;;;5099849;27;20038;-67
2022/01/12 10:26:43;;;;;;;36.20;11.93;;;5.70;99.90;;;;;;5097870;27;20053;-67
2022/01/12 10:29:20;;;;;;;33.67;11.40;;;5.70;99.90;;;;;;5115038;27;20055;-66
2022/01/12 10:31:50;;;;;;;30.38;11.45;;;5.70;99.90;;;;;;5133063;27;20402;-67
2022/01/12 10:34:16;;;;;;;27.30;10.43;;;5.70;99.90;;;;;;5114368;27;20088;-67
2022/01/12 10:36:43;;;;;;;33.88;9.38;;;5.80;99.90;;;;;;5133108;27;20106;-68
2022/01/12 10:39:13;;;;;;;26.50;9.32;;;5.80;99.90;;;;;;5120329;27;20042;-67
2022/01/12 10:41:54;;;;;;;43.78;9.52;;;5.80;99.90;;;;;;5135323;27;20039;-67
2022/01/12 10:44:26;;;;;;;28.00;8.63;;;5.80;99.90;;;;;;5134950;27;20038;-68
2022/01/12 10:47:12;;;;;;;24.95;8.13;;;5.90;99.90;;;;;;5135251;27;20037;-68
2022/01/12 10:49:46;;;;;;;26.23;8.80;;;5.90;99.90;;;;;;5135157;27;20038;-68
2022/01/12 10:52:13;;;;;;;28.90;8.10;;;6.00;99.90;;;;;;5153095;27;20681;-68
2022/01/12 10:54:48;;;;;;;25.60;7.90;;;5.90;99.90;;;;;;5153534;27;20039;-68
2022/01/12 10:57:24;;;;;;;23.33;8.38;;;6.00;99.90;;;;;;5135331;27;20053;-67
2022/01/12 11:00:23;;;;;;;26.52;8.07;;;6.00;99.90;;;;;;5153943;27;20039;-68
2022/01/12 11:02:54;;;;;;;26.17;7.63;;;6.10;99.90;;;;;;5116498;27;20090;-67
2022/01/12 11:05:22;;;;;;;25.88;7.53;;;6.10;99.90;;;;;;5153922;27;20544;-68
2022/01/12 11:07:49;;;;;;;31.60;7.60;;;6.10;99.90;;;;;;5134984;27;20049;-68
2022/01/12 11:10:15;;;;;;;27.90;7.60;;;6.10;99.90;;;;;;5134436;27;20743;-68
2022/01/12 11:12:42;;;;;;;28.17;7.40;;;6.10;99.90;;;;;;5152543;27;20053;-68
2022/01/12 11:15:09;;;;;;;25.63;6.50;;;6.10;99.90;;;;;;5135070;27;20487;-67
2022/01/12 11:17:38;;;;;;;28.38;6.55;;;6.10;99.90;;;;;;5118120;27;20038;-67
2022/01/12 11:20:15;;;;;;;24.50;6.38;;;6.10;99.90;;;;;;5153481;27;20053;-67
2022/01/12 11:23:03;;;;;;;30.73;8.48;;;6.10;99.90;;;;;;5135085;27;20448;-67
2022/01/12 11:25:40;;;;;;;31.83;7.50;;;6.20;99.90;;;;;;5135046;27;20046;-67
2022/01/12 11:28:18;;;;;;;26.50;6.70;;;6.10;99.90;;;;;;5153613;27;20035;-67
2022/01/12 11:31:05;;;;;;;37.00;8.00;;;6.20;99.90;;;;;;5134911;27;20042;-67
2022/01/12 11:33:33;;;;;;;26.60;7.22;;;6.20;99.90;;;;;;5134565;27;20560;-67
2022/01/12 11:36:04;;;;;;;29.85;8.52;;;6.20;99.90;;;;;;5134869;27;20080;-67
2022/01/12 11:38:34;;;;;;;31.50;8.75;;;6.20;99.90;;;;;;5134781;27;20046;-68
2022/01/12 11:41:35;;;;;;;33.67;8.32;;;6.20;99.90;;;;;;5134814;27;20050;-68
2022/01/12 11:44:01;;;;;;;27.77;8.05;;;6.30;99.90;;;;;;5112896;27;20511;-67
2022/01/12 11:46:49;;;;;;;38.63;8.75;;;6.30;99.90;;;;;;5153275;27;20126;-67
2022/01/12 11:49:25;;;;;;;32.15;8.65;;;6.30;99.90;;;;;;5134688;27;20070;-67
2022/01/12 11:51:51;;;;;;;39.67;8.52;;;6.30;99.90;;;;;;5134183;27;20046;-67
2022/01/12 11:54:22;;;;;;;32.78;7.38;;;6.30;99.90;;;;;;5133978;27;20043;-67
2022/01/12 11:56:56;;;;;;;30.20;8.50;;;6.30;99.90;;;;;;5153171;27;20049;-67
2022/01/12 11:59:24;;;;;;;27.15;8.32;;;6.30;99.90;;;;;;5152917;27;20035;-67
2022/01/12 12:01:52;;;;;;;41.72;10.40;;;6.30;99.90;;;;;;5134082;27;20066;-67
2022/01/12 12:04:30;;;;;;;32.42;9.05;;;6.30;99.90;;;;;;5152923;27;20049;-67
2022/01/12 12:07:05;;;;;;;34.67;8.15;;;6.30;99.90;;;;;;5134345;27;20031;-67
2022/01/12 12:09:53;;;;;;;36.20;9.45;;;6.30;99.90;;;;;;5134299;27;20043;-67
2022/01/12 12:12:33;;;;;;;40.60;9.05;;;6.30;99.90;;;;;;5133989;27;20510;-67
2022/01/12 12:15:01;;;;;;;38.38;9.35;;;6.30;99.90;;;;;;5152471;27;20409;-66
2022/01/12 12:17:31;;;;;;;31.25;9.45;;;6.30;99.90;;;;;;5134218;27;20068;-66
2022/01/12 12:19:58;;;;;;;36.28;10.35;;;6.30;99.90;;;;;;5134126;27;20047;-66
2022/01/12 12:22:27;;;;;;;38.30;9.52;;;6.30;99.90;;;;;;5133824;27;20053;-66
2022/01/12 12:24:59;;;;;;;33.15;9.60;;;6.30;99.90;;;;;;5115465;27;20109;-67
2022/01/12 12:27:28;;;;;;;32.45;9.48;;;6.30;99.90;;;;;;5112647;27;20046;-67
2022/01/12 12:29:54;;;;;;;26.80;8.07;;;6.30;99.90;;;;;;5131460;27;20051;-67
2022/01/12 12:32:32;;;;;;;30.95;8.38;;;6.30;99.90;;;;;;5112618;27;20392;-67
2022/01/12 12:35:08;;;;;;;37.85;9.77;;;6.30;99.90;;;;;;5131525;27;20046;-67
2022/01/12 12:37:43;;;;;;;34.80;10.05;;;6.30;99.90;;;;;;5113163;28;20085;-67
2022/01/12 12:40:20;;;;;;;30.05;8.55;;;6.30;99.90;;;;;;5112713;28;20418;-67
2022/01/12 12:42:49;;;;;;;35.70;9.70;;;6.40;99.90;;;;;;5112576;28;20039;-67
2022/01/12 12:45:15;;;;;;;37.75;9.40;;;6.40;99.90;;;;;;5112471;28;20506;-66
2022/01/12 12:47:42;;;;;;;21.83;8.75;;;6.40;99.90;;;;;;5112468;28;20031;-67
2022/01/12 12:50:12;;;;;;;26.98;7.95;;;6.40;99.90;;;;;;5113105;28;20082;-67
2022/01/12 12:52:39;;;;;;;25.20;8.45;;;6.40;99.90;;;;;;5112125;28;20121;-67
2022/01/12 12:55:14;;;;;;;42.80;9.35;;;6.40;99.90;;;;;;5131486;28;20038;-67
2022/01/12 12:57:48;;;;;;;37.22;11.18;;;6.40;99.90;;;;;;5112981;28;20437;-67
2022/01/12 13:00:19;;;;;;;30.90;8.52;;;6.40;99.90;;;;;;5112915;28;20043;-67
2022/01/12 13:02:47;;;;;;;27.63;7.78;;;6.40;99.90;;;;;;5130933;27;20447;-68
2022/01/12 13:05:19;;;;;;;25.25;6.88;;;6.40;99.90;;;;;;5112646;28;20766;-68
2022/01/12 13:07:46;;;;;;;34.30;9.25;;;6.50;99.90;;;;;;5133647;27;20069;-71
2022/01/12 13:10:18;;;;;;;34.05;9.35;;;6.50;99.90;;;;;;5116520;27;20534;-70
2022/01/12 13:12:46;;;;;;;28.10;8.30;;;6.50;99.90;;;;;;5115438;27;20047;-71
2022/01/12 13:15:18;;;;;;;25.23;8.27;;;6.50;99.90;;;;;;5116095;27;20056;-69
2022/01/12 13:17:43;;;;;;;35.30;8.20;;;6.50;99.90;;;;;;5116894;27;20494;-69
2022/01/12 13:22:46;;;;;;;33.13;9.27;;;6.50;99.90;;;;;;5116726;27;20043;-69
2022/01/12 13:25:15;;;;;;;37.03;9.43;;;6.50;99.90;;;;;;5116114;27;20548;-69
2022/01/12 13:27:41;;;;;;;34.05;9.35;;;6.50;99.90;;;;;;5116351;27;20035;-69
2022/01/12 13:30:09;;;;;;;22.50;7.43;;;6.50;99.90;;;;;;5134974;27;20039;-67
2022/01/12 13:32:37;;;;;;;29.52;9.00;;;6.80;99.90;;;;;;5099476;27;20039;-68
2022/01/12 13:35:09;;;;;;;41.15;11.35;;;6.70;99.90;;;;;;5116901;27;20125;-68
2022/01/12 13:37:36;;;;;;;28.02;9.60;;;6.60;99.90;;;;;;5116635;27;20039;-68
2022/01/12 13:40:09;;;;;;;38.20;9.57;;;6.60;99.90;;;;;;5134958;27;20054;-68
2022/01/12 13:42:50;;;;;;;36.47;10.05;;;6.60;99.90;;;;;;5116213;27;20050;-68
2022/01/12 13:45:21;;;;;;;35.38;8.45;;;6.70;99.90;;;;;;5135002;27;20396;-66
2022/01/12 13:47:52;;;;;;;27.13;8.20;;;6.60;99.90;;;;;;5116495;27;20429;-67
2022/01/12 13:50:19;;;;;;;30.27;8.88;;;6.60;99.90;;;;;;5116660;27;20093;-67
2022/01/12 13:52:54;;;;;;;32.42;8.50;;;6.60;99.90;;;;;;5115916;27;20070;-69
2022/01/12 13:55:20;;;;;;;22.88;8.43;;;6.50;99.90;;;;;;5116333;27;20043;-69
2022/01/12 13:57:54;;;;;;;21.15;7.53;;;6.50;99.90;;;;;;5134667;27;20114;-69
2022/01/12 14:00:20;;;;;;;26.55;8.43;;;6.40;99.90;;;;;;5107097;27;20510;-67